Time;durP1;ratioP1;P1;durP2;ratioP2;P2;SDS_P1;SDS_P2;PMS_P1;PMS_P2;Temp;Humidity;BMP_temperature;BMP_pressure;BME280_temperature;BME280_humidity;BME280_pressure;Samples;Min_cycle;Max_cycle;Signal;HPM_P1;HPM_P2
2022/05/01 00:00:28;;;;;;;17.00;7.82;;;;;;;5.98;100.00;99417.66;4374851;32;20085;-76
2022/05/01 00:03:06;;;;;;;19.98;7.82;;;;;;;5.95;100.00;99418.06;4374278;32;20031;-76
2022/05/01 00:09:18;;;;;;;29.40;7.95;;;;;;;5.92;100.00;99413.13;4391197;32;20468;-76
2022/05/01 00:11:46;;;;;;;20.95;8.88;;;;;;;5.91;100.00;99427.53;4378200;32;20027;-76
2022/05/01 00:14:14;;;;;;;32.30;9.45;;;;;;;5.89;100.00;99410.88;4391020;32;20094;-76
2022/05/01 00:16:49;;;;;;;26.05;9.95;;;;;;;5.88;100.00;99401.22;4391666;32;20388;-76
2022/05/01 00:19:16;;;;;;;24.58;9.85;;;;;;;5.60;100.00;99372.91;4378304;32;20039;-76
2022/05/01 00:21:42;;;;;;;25.05;9.27;;;;;;;5.51;100.00;99372.34;4391065;32;20035;-75
2022/05/01 00:24:19;;;;;;;23.12;9.20;;;;;;;5.39;100.00;99361.47;4391224;32;20056;-75
2022/05/01 00:26:46;;;;;;;19.65;9.48;;;;;;;5.66;100.00;99408.69;4377522;32;20050;-76
2022/05/01 00:29:13;;;;;;;21.23;8.38;;;;;;;5.30;100.00;99365.38;4390936;32;20074;-76
2022/05/01 00:31:40;;;;;;;21.87;9.95;;;;;;;5.33;100.00;99366.78;4391615;32;20039;-75
2022/05/01 00:36:52;;;;;;;19.30;8.80;;;;;;;5.51;100.00;99408.91;4392389;32;20057;-77
2022/05/01 00:39:19;;;;;;;29.52;8.13;;;;;;;5.43;100.00;99408.09;4392464;32;20047;-77
2022/05/01 00:41:46;;;;;;;18.02;7.97;;;;;;;5.16;100.00;99361.09;4391097;32;20474;-77
2022/05/01 00:44:15;;;;;;;17.75;7.90;;;;;;;5.38;100.00;99415.91;4391105;32;20076;-76
2022/05/01 00:49:30;;;;;;;18.65;8.05;;;;;;;5.41;100.00;99412.81;4390771;32;20035;-77
2022/05/01 00:52:06;;;;;;;14.93;7.93;;;;;;;5.16;100.00;99369.09;4377312;32;20051;-75
2022/05/01 00:54:36;;;;;;;22.23;8.77;;;;;;;5.39;100.00;99414.87;4390773;32;20088;-76
2022/05/01 00:57:05;;;;;;;22.00;9.35;;;;;;;5.10;100.00;99378.72;4377044;32;20104;-75
2022/05/01 00:59:34;;;;;;;18.45;8.85;;;;;;;5.28;100.00;99407.47;4376933;32;20019;-75
2022/05/01 01:02:02;;;;;;;15.05;7.93;;;;;;;5.25;100.00;99414.06;4376880;32;20028;-75
2022/05/01 01:04:30;;;;;;;22.30;8.30;;;;;;;5.23;100.00;99399.25;4377073;32;20064;-76
2022/05/01 01:06:56;;;;;;;16.80;7.70;;;;;;;5.20;100.00;99405.84;4377183;32;20360;-76
2022/05/01 01:09:23;;;;;;;16.92;7.65;;;;;;;4.90;100.00;99358.19;4376800;32;20085;-77
2022/05/01 01:14:35;;;;;;;17.90;8.60;;;;;;;5.13;100.00;99399.66;4390674;32;20039;-76
2022/05/01 01:17:04;;;;;;;20.92;8.13;;;;;;;4.81;100.00;99354.09;4376824;32;20079;-76
2022/05/01 01:19:30;;;;;;;22.15;8.10;;;;;;;5.08;100.00;99408.28;4364169;32;20032;-76
2022/05/01 01:21:57;;;;;;;20.25;7.87;;;;;;;4.80;100.00;99365.75;4376797;32;20027;-77
2022/05/01 01:24:39;;;;;;;18.17;7.55;;;;;;;5.04;100.00;99407.06;4365344;32;20046;-76
2022/05/01 01:27:06;;;;;;;14.30;7.95;;;;;;;5.11;100.00;99406.25;4376564;32;20027;-76
2022/05/01 01:32:28;;;;;;;19.80;6.68;;;;;;;5.05;100.00;99408.69;4390491;32;20015;-74
2022/05/01 01:34:57;;;;;;;20.00;6.93;;;;;;;4.81;100.00;99375.44;4376441;32;20039;-76
2022/05/01 01:37:24;;;;;;;13.32;6.60;;;;;;;4.96;100.00;99404.56;4376331;32;20075;-76
2022/05/01 01:39:52;;;;;;;14.65;6.37;;;;;;;4.95;100.00;99407.47;4376799;32;20031;-76
2022/05/01 01:42:21;;;;;;;14.60;8.10;;;;;;;4.95;100.00;99405.63;4363907;32;20338;-76
2022/05/01 01:44:49;;;;;;;19.25;8.15;;;;;;;4.93;100.00;99404.16;4376299;32;20039;-76
2022/05/01 01:47:18;;;;;;;16.73;6.55;;;;;;;4.67;100.00;99360.44;4390108;32;20027;-76
2022/05/01 01:49:45;;;;;;;17.08;6.65;;;;;;;4.66;100.00;99351.63;4389970;32;20480;-76
2022/05/01 01:52:11;;;;;;;12.93;6.95;;;;;;;4.94;100.00;99398.63;4376485;32;20101;-75
2022/05/01 01:54:38;;;;;;;11.32;6.18;;;;;;;4.64;100.00;99353.66;4376208;32;20053;-76
2022/05/01 01:57:05;;;;;;;17.67;6.45;;;;;;;4.60;100.00;99347.09;4376637;32;20188;-76
2022/05/01 01:59:31;;;;;;;12.18;5.62;;;;;;;4.91;100.00;99396.38;4388789;32;20053;-77
2022/05/01 02:01:58;;;;;;;9.55;5.25;;;;;;;4.69;100.00;99351.22;4391260;32;20466;-77
2022/05/01 02:04:25;;;;;;;12.43;6.40;;;;;;;3.97;100.00;99230.06;4377690;32;20065;-77
2022/05/01 02:06:51;;;;;;;10.93;5.37;;;;;;;4.97;100.00;99363.53;4389989;32;20388;-77
2022/05/01 02:12:48;;;;;;;10.88;5.22;;;;;;;5.28;100.00;99394.13;4389983;32;20092;-76
2022/05/01 02:18:44;;;;;;;10.75;5.07;;;;;;;5.38;100.00;99383.84;4390559;32;20063;-77
2022/05/01 02:23:55;;;;;;;10.73;5.93;;;;;;;5.23;100.00;99365.41;4389870;32;20012;-76
2022/05/01 02:26:22;;;;;;;13.25;5.30;;;;;;;5.40;100.00;99384.47;4376198;32;20030;-76
2022/05/01 02:28:49;;;;;;;15.70;5.32;;;;;;;5.14;100.00;99347.09;4389799;32;20065;-77
2022/05/01 02:31:16;;;;;;;12.45;5.75;;;;;;;5.32;100.00;99384.69;4389816;32;20354;-76
2022/05/01 02:33:44;;;;;;;16.55;4.93;;;;;;;4.71;100.00;99301.13;4389162;32;20112;-77
2022/05/01 02:36:12;;;;;;;15.25;5.22;;;;;;;5.01;100.00;99354.09;4376053;32;20056;-76
2022/05/01 02:38:38;;;;;;;15.52;5.00;;;;;;;5.21;100.00;99385.31;4375770;32;20023;-76
2022/05/01 02:41:05;;;;;;;10.25;5.75;;;;;;;5.17;100.00;99386.72;4375603;32;20433;-77
2022/05/01 02:43:32;;;;;;;17.60;5.45;;;;;;;5.14;100.00;99376.47;4388416;32;20196;-76
2022/05/01 02:45:58;;;;;;;8.20;4.85;;;;;;;4.99;100.00;99358.00;4375698;32;20035;-76
2022/05/01 02:48:25;;;;;;;8.73;4.75;;;;;;;5.04;100.00;99377.72;4375403;32;20383;-76
2022/05/01 02:50:51;;;;;;;12.60;5.32;;;;;;;4.71;100.00;99327.81;4375941;32;20023;-76
2022/05/01 02:53:18;;;;;;;9.98;4.72;;;;;;;4.90;100.00;99373.41;4389390;32;20072;-76
2022/05/01 02:59:16;;;;;;;8.52;4.28;;;;;;;4.86;100.00;99367.63;4389000;32;20356;-77
2022/05/01 03:01:44;;;;;;;8.95;4.37;;;;;;;4.90;100.00;99378.72;4389075;32;20116;-76
2022/05/01 03:04:11;;;;;;;7.28;3.92;;;;;;;4.96;100.00;99374.41;4390542;32;20065;-76
2022/05/01 03:06:37;;;;;;;11.38;5.57;;;;;;;4.90;100.00;99370.72;4375706;32;20062;-77
2022/05/01 03:09:04;;;;;;;8.48;4.62;;;;;;;4.67;100.00;99331.91;4388965;32;20096;-76
2022/05/01 03:11:32;;;;;;;11.25;5.22;;;;;;;4.60;100.00;99330.28;4376431;32;20151;-76
2022/05/01 03:13:58;;;;;;;7.45;4.95;;;;;;;4.85;100.00;99367.81;4375928;32;20360;-76
2022/05/01 03:16:25;;;;;;;8.77;4.80;;;;;;;4.83;100.00;99375.22;4389338;32;20042;-76
2022/05/01 03:24:22;;;;;;;6.47;4.18;;;;;;;4.85;100.00;99375.84;4389694;32;20081;-76
2022/05/01 03:26:49;;;;;;;7.37;4.45;;;;;;;4.54;100.00;99331.91;4389082;32;20043;-76
2022/05/01 03:29:16;;;;;;;14.90;4.82;;;;;;;4.67;100.00;99358.56;4376613;32;20035;-76
2022/05/01 03:31:42;;;;;;;9.80;5.60;;;;;;;4.82;100.00;99381.56;4378091;32;20061;-76
2022/05/01 03:34:09;;;;;;;20.90;5.70;;;;;;;4.78;100.00;99364.34;4390740;32;20043;-76
2022/05/01 03:36:35;;;;;;;11.30;6.30;;;;;;;4.86;100.00;99372.16;4392286;32;20027;-76
2022/05/01 03:39:04;;;;;;;11.38;6.18;;;;;;;4.84;100.00;99368.87;4378729;32;20057;-76
2022/05/01 03:41:32;;;;;;;8.98;5.55;;;;;;;4.78;100.00;99369.69;4391431;32;20039;-76
2022/05/01 03:43:58;;;;;;;10.95;4.60;;;;;;;4.72;100.00;99361.47;4391444;32;20073;-76
2022/05/01 03:46:24;;;;;;;12.35;5.80;;;;;;;4.72;100.00;99366.81;4391510;32;20086;-76
2022/05/01 03:48:51;;;;;;;11.25;4.87;;;;;;;4.57;100.00;99342.16;4378227;32;20060;-76
2022/05/01 03:51:18;;;;;;;13.98;5.70;;;;;;;4.77;100.00;99368.03;4378102;32;20057;-76
2022/05/01 03:53:47;;;;;;;19.10;5.82;;;;;;;4.80;100.00;99370.28;4391959;32;20070;-76
2022/05/01 03:56:14;;;;;;;24.45;7.07;;;;;;;4.80;100.00;99359.63;4390400;32;20111;-76
2022/05/01 03:58:41;;;;;;;9.98;5.65;;;;;;;4.91;100.00;99369.69;4377688;32;20057;-76
2022/05/01 04:01:07;;;;;;;14.35;7.15;;;;;;;4.96;100.00;99372.56;4390136;32;20031;-76
2022/05/01 04:03:34;;;;;;;16.48;7.70;;;;;;;4.24;100.00;99262.94;4392403;32;20075;-76
2022/05/01 04:06:00;;;;;;;16.98;6.80;;;;;;;5.00;100.00;99368.47;4377901;32;20053;-76
2022/05/01 04:08:27;;;;;;;12.52;5.97;;;;;;;5.05;100.00;99366.00;4378597;32;20027;-76
2022/05/01 04:10:54;;;;;;;13.82;5.93;;;;;;;4.87;100.00;99336.44;4391071;32;20098;-75
2022/05/01 04:13:21;;;;;;;14.48;6.35;;;;;;;4.83;100.00;99324.53;4391599;32;20040;-75
2022/05/01 04:15:49;;;;;;;15.10;6.82;;;;;;;4.95;100.00;99338.09;4377868;32;20030;-75
2022/05/01 04:18:16;;;;;;;15.15;6.03;;;;;;;5.32;100.00;99381.19;4377889;32;20024;-75
2022/05/01 04:20:46;;;;;;;12.82;7.30;;;;;;;5.37;100.00;99378.72;4377710;32;20045;-76
2022/05/01 04:23:12;;;;;;;12.63;7.07;;;;;;;5.19;100.00;99339.31;4377341;32;20322;-77
2022/05/01 04:25:40;;;;;;;19.50;8.18;;;;;;;5.31;100.00;99326.94;4377225;32;20061;-76
2022/05/01 04:28:09;;;;;;;14.93;5.87;;;;;;;5.44;100.00;99342.12;4376531;32;20031;-76
2022/05/01 04:30:37;;;;;;;11.75;6.25;;;;;;;5.81;100.00;99375.34;4581582;27;20122;-73
2022/05/01 04:33:06;;;;;;;12.15;6.90;;;;;;;5.66;100.00;99345.37;4339205;33;20061;-88
2022/05/01 04:35:37;;;;;;;26.58;8.93;;;;;;;5.86;100.00;99361.34;4331273;33;20510;-76
2022/05/01 04:38:14;;;;;;;22.85;10.98;;;;;;;6.11;100.00;99385.56;4342475;33;20060;-75
2022/05/01 04:40:43;;;;;;;21.70;9.23;;;;;;;6.23;100.00;99390.25;4340915;33;20388;-74
2022/05/01 04:43:12;;;;;;;15.68;8.73;;;;;;;6.09;100.00;99344.84;4336261;33;20070;-74
2022/05/01 04:45:40;;;;;;;16.70;7.25;;;;;;;6.50;100.00;99382.91;4334733;33;20091;-86
2022/05/01 04:48:08;;;;;;;20.83;7.82;;;;;;;6.62;100.00;99391.06;4332891;33;20054;-78
2022/05/01 04:50:35;;;;;;;15.65;5.93;;;;;;;6.44;100.00;99336.44;4337578;33;20355;-77
2022/05/01 04:53:06;;;;;;;11.65;6.40;;;;;;;6.79;100.00;99380.69;4338862;33;20040;-75
2022/05/01 04:55:33;;;;;;;11.68;5.53;;;;;;;6.99;100.00;99386.72;4336382;33;20052;-74
2022/05/01 04:58:00;;;;;;;8.70;5.00;;;;;;;6.98;100.00;99341.41;4333065;33;20174;-74
2022/05/01 05:00:27;;;;;;;15.10;6.00;;;;;;;7.36;100.00;99375.28;4333396;33;20460;-74
2022/05/01 05:02:54;;;;;;;9.75;4.80;;;;;;;7.53;100.00;99379.06;4344701;32;20058;-83
2022/05/01 05:05:21;;;;;;;8.25;5.12;;;;;;;7.73;100.00;99386.06;4330979;33;20376;-74
2022/05/01 05:07:48;;;;;;;9.82;4.70;;;;;;;7.62;100.00;99342.84;4332854;33;20078;-74
2022/05/01 05:10:16;;;;;;;25.00;4.50;;;;;;;7.97;100.00;99385.16;4339265;33;20731;-73
2022/05/01 05:12:45;;;;;;;9.98;4.20;;;;;;;7.92;100.00;99362.75;4338332;33;20073;-74
2022/05/01 05:15:15;;;;;;;18.27;4.40;;;;;;;8.23;100.00;99383.19;4333407;33;20082;-74
2022/05/01 05:17:42;;;;;;;13.88;4.25;;;;;;;8.09;100.00;99349.53;4341882;32;20070;-74
2022/05/01 05:20:11;;;;;;;21.95;5.40;;;;;;;8.48;100.00;99382.31;4335406;33;20061;-74
2022/05/01 05:22:40;;;;;;;10.75;3.83;;;;;;;8.42;100.00;99359.03;4343121;32;20088;-75
2022/05/01 05:25:12;;;;;;;12.05;4.62;;;;;;;8.60;100.00;99360.87;4343755;32;20073;-75
2022/05/01 05:27:39;;;;;;;9.32;3.53;;;;;;;8.94;100.00;99386.19;4332845;33;20044;-74
2022/05/01 05:30:06;;;;;;;5.30;3.50;;;;;;;9.00;100.00;99379.06;4342225;32;20056;-75
2022/05/01 05:32:32;;;;;;;12.65;4.22;;;;;;;9.00;100.00;99349.53;4338082;33;20520;-74
2022/05/01 05:35:07;;;;;;;8.02;3.72;;;;;;;9.39;100.00;99398.28;4333711;33;20117;-77
2022/05/01 05:37:33;;;;;;;6.65;3.87;;;;;;;9.51;100.00;99395.59;4330775;33;20062;-74
2022/05/01 05:40:00;;;;;;;4.12;2.95;;;;;;;9.69;100.00;99398.19;4333697;33;20085;-75
2022/05/01 05:42:27;;;;;;;5.93;3.33;;;;;;;9.79;100.00;99395.69;4344853;32;20462;-74
2022/05/01 05:44:53;;;;;;;5.43;3.60;;;;;;;9.96;100.00;99397.69;4333565;33;20458;-76
2022/05/01 05:47:20;;;;;;;10.02;3.72;;;;;;;10.13;100.00;99393.19;4335464;33;20056;-75
2022/05/01 05:49:47;;;;;;;5.80;3.37;;;;;;;10.29;100.00;99398.87;4348316;32;20036;-75
2022/05/01 05:52:14;;;;;;;6.15;3.25;;;;;;;10.14;100.00;99346.37;4342722;32;20062;-73
2022/05/01 05:54:40;;;;;;;6.40;3.53;;;;;;;10.61;100.00;99398.44;4334907;33;20464;-80
2022/05/01 05:57:07;;;;;;;6.80;3.37;;;;;;;10.67;100.00;99392.09;4350525;32;20048;-75
2022/05/01 05:59:34;;;;;;;3.35;2.22;;;;;;;10.83;100.00;99394.03;4340835;33;20062;-76
2022/05/01 06:02:02;;;;;;;5.47;2.53;;;;;;;11.12;100.00;99402.06;4340650;33;20082;-76
2022/05/01 06:04:29;;;;;;;3.08;2.05;;;;;;;11.36;100.00;99400.03;4341231;33;20106;-76
2022/05/01 06:06:56;;;;;;;2.83;2.30;;;;;;;11.45;100.00;99398.56;4340516;33;20040;-74
2022/05/01 06:09:22;;;;;;;5.10;2.10;;;;;;;11.37;100.00;99373.88;4341173;33;20033;-74
2022/05/01 06:11:49;;;;;;;9.88;2.67;;;;;;;11.67;100.00;99405.87;4339655;33;20534;-80
2022/05/01 06:14:15;;;;;;;5.25;2.40;;;;;;;11.54;100.00;99358.50;4339626;33;20085;-79
2022/05/01 06:16:41;;;;;;;6.20;2.42;;;;;;;11.91;95.92;99411.88;4340261;33;20074;-74
2022/05/01 06:19:08;;;;;;;4.95;2.30;;;;;;;12.08;100.00;99405.66;4340048;33;20056;-73
2022/05/01 06:21:34;;;;;;;2.62;2.08;;;;;;;12.12;98.57;99401.38;4351596;32;20032;-73
2022/05/01 06:24:00;;;;;;;2.47;1.75;;;;;;;12.11;96.83;99380.84;4340822;33;20311;-73
2022/05/01 06:26:27;;;;;;;8.88;2.20;;;;;;;12.35;97.20;99406.53;4351525;32;20045;-73
2022/05/01 06:28:53;;;;;;;3.53;1.60;;;;;;;12.42;96.44;99400.13;4340797;33;20377;-74
2022/05/01 06:31:20;;;;;;;2.05;1.80;;;;;;;12.46;95.74;99396.66;4348921;32;20357;-78
2022/05/01 06:33:47;;;;;;;4.65;2.20;;;;;;;12.42;93.71;99373.12;4339647;33;20066;-74
2022/05/01 06:36:15;;;;;;;3.62;2.10;;;;;;;12.50;80.31;99364.56;4340588;33;20048;-73
2022/05/01 06:38:43;;;;;;;2.78;1.60;;;;;;;12.67;90.23;99369.88;4351686;32;20032;-74
2022/05/01 06:41:14;;;;;;;2.85;1.48;;;;;;;12.99;75.66;99407.72;4340017;33;20048;-74
2022/05/01 06:43:40;;;;;;;1.77;1.67;;;;;;;13.16;81.07;99412.19;4337001;33;20682;-75
2022/05/01 06:46:06;;;;;;;4.12;2.30;;;;;;;13.05;79.11;99376.97;4350208;32;20381;-73
2022/05/01 06:48:33;;;;;;;3.47;1.73;;;;;;;13.35;68.02;99416.16;4338461;33;20073;-77
2022/05/01 06:51:00;;;;;;;6.95;1.58;;;;;;;13.43;70.83;99415.72;4338887;33;20095;-74
2022/05/01 06:53:26;;;;;;;6.57;2.22;;;;;;;13.47;66.88;99409.78;4338657;33;20085;-73
2022/05/01 06:55:59;;;;;;;8.38;1.85;;;;;;;13.48;61.46;99416.81;4347385;33;20154;-74
2022/05/01 06:58:26;;;;;;;4.00;2.10;;;;;;;13.28;59.07;99374.97;4337286;33;20539;-74
2022/05/01 07:00:54;;;;;;;7.18;1.40;;;;;;;13.59;64.58;99423.91;4338690;33;20171;-75
2022/05/01 07:03:21;;;;;;;4.78;1.75;;;;;;;13.70;59.07;99425.62;4337900;33;20444;-74
2022/05/01 07:05:47;;;;;;;4.57;1.83;;;;;;;13.51;60.56;99390.03;4350799;32;20070;-73
2022/05/01 07:08:14;;;;;;;5.62;1.50;;;;;;;13.51;62.41;99394.66;4339317;33;20083;-73
2022/05/01 07:10:41;;;;;;;11.88;2.00;;;;;;;13.75;59.37;99428.38;4343290;33;20109;-75
2022/05/01 07:13:09;;;;;;;4.35;1.62;;;;;;;13.79;63.45;99428.66;4353740;32;20031;-73
2022/05/01 07:15:38;;;;;;;5.47;2.47;;;;;;;13.79;60.23;99434.88;4341063;33;20049;-74
2022/05/01 07:18:05;;;;;;;4.20;1.58;;;;;;;13.80;56.35;99423.00;4339072;33;20038;-74
2022/05/01 07:20:34;;;;;;;7.18;1.42;;;;;;;13.63;56.09;99387.97;4331381;33;20349;-78
2022/05/01 07:23:01;;;;;;;2.30;1.55;;;;;;;13.91;59.15;99420.31;4341709;33;20039;-74
2022/05/01 07:25:28;;;;;;;3.17;1.50;;;;;;;14.07;60.92;99418.53;4353529;32;20070;-74
2022/05/01 07:27:54;;;;;;;2.22;1.30;;;;;;;14.01;62.90;99384.37;4341942;33;20044;-75
2022/05/01 07:30:21;;;;;;;6.15;1.50;;;;;;;13.96;53.40;99390.56;4341073;33;20201;-75
2022/05/01 07:32:48;;;;;;;2.47;1.40;;;;;;;14.20;51.94;99420.78;4342117;33;20048;-74
2022/05/01 07:35:14;;;;;;;4.15;2.35;;;;;;;14.01;55.04;99387.91;4342881;33;20168;-74
2022/05/01 07:37:40;;;;;;;8.30;1.73;;;;;;;14.19;58.55;99410.19;4342421;33;20375;-73
2022/05/01 07:40:08;;;;;;;1.67;1.58;;;;;;;14.31;56.34;99413.47;4339427;33;20054;-78
2022/05/01 07:42:35;;;;;;;3.80;1.55;;;;;;;14.43;56.91;99405.94;4352320;32;20032;-75
2022/05/01 07:45:03;;;;;;;4.90;1.20;;;;;;;14.43;53.87;99422.19;4341568;33;20230;-74
2022/05/01 07:47:30;;;;;;;2.83;1.87;;;;;;;14.27;53.10;99385.31;4352457;32;20040;-74
2022/05/01 07:49:56;;;;;;;4.12;1.67;;;;;;;14.19;51.81;99388.53;4341111;33;20058;-74
2022/05/01 07:52:25;;;;;;;6.35;1.60;;;;;;;14.33;53.69;99416.75;4351869;32;20061;-74
2022/05/01 07:54:52;;;;;;;4.55;1.20;;;;;;;14.14;57.40;99387.41;4341235;33;20068;-76
2022/05/01 07:57:20;;;;;;;3.30;1.50;;;;;;;14.18;51.11;99414.78;4364010;32;20028;-77
2022/05/01 07:59:47;;;;;;;1.92;1.60;;;;;;;14.28;53.29;99422.13;4354049;32;20040;-74
2022/05/01 08:02:14;;;;;;;1.92;1.80;;;;;;;13.64;52.84;99323.84;4340161;33;20051;-74
2022/05/01 08:04:44;;;;;;;3.00;1.52;;;;;;;14.26;53.84;99418.88;4341717;33;20078;-73
2022/05/01 08:07:11;;;;;;;4.28;2.33;;;;;;;14.23;51.03;99416.69;4352854;32;20347;-72
2022/05/01 08:09:37;;;;;;;9.82;1.48;;;;;;;14.28;49.64;99420.25;4327169;33;20474;-73
2022/05/01 08:12:05;;;;;;;6.00;1.65;;;;;;;14.28;50.38;99408.59;4344861;33;20381;-75
2022/05/01 08:14:32;;;;;;;2.78;1.25;;;;;;;13.85;45.83;99351.00;4352026;32;20360;-77
2022/05/01 08:16:58;;;;;;;1.90;1.40;;;;;;;14.24;46.39;99412.91;4352067;32;20432;-74
2022/05/01 08:22:10;;;;;;;4.18;1.50;;;;;;;14.28;47.36;99397.75;4352947;32;20171;-74
2022/05/01 08:24:37;;;;;;;3.90;1.60;;;;;;;14.25;50.02;99376.63;4340995;33;20058;-73
2022/05/01 08:27:07;;;;;;;15.77;2.42;;;;;;;14.48;50.52;99392.41;4351222;32;20062;-76
2022/05/01 08:29:38;;;;;;;7.95;1.55;;;;;;;14.58;49.72;99401.66;4338090;33;20070;-73
2022/05/01 08:32:06;;;;;;;2.58;1.62;;;;;;;14.28;48.15;99366.09;4337093;33;20057;-74
2022/05/01 08:34:33;;;;;;;4.18;1.23;;;;;;;14.43;48.19;99389.69;4323723;33;20094;-76
2022/05/01 08:36:59;;;;;;;4.62;1.60;;;;;;;14.36;48.58;99378.31;4339596;33;20060;-76
2022/05/01 08:39:26;;;;;;;2.30;1.67;;;;;;;14.56;48.74;99393.00;4339426;33;20101;-77
2022/05/01 08:41:52;;;;;;;2.42;1.85;;;;;;;14.61;49.17;99395.72;4337723;33;20401;-77
2022/05/01 08:44:30;;;;;;;3.45;1.42;;;;;;;14.70;49.89;99396.84;4348497;32;20060;-78
2022/05/01 08:47:14;;;;;;;6.97;2.00;;;;;;;14.64;48.56;99384.37;4350843;32;20334;-75
2022/05/01 08:49:43;;;;;;;5.20;1.45;;;;;;;14.48;52.44;99354.47;4340832;33;20463;-75
2022/05/01 08:52:10;;;;;;;2.87;1.45;;;;;;;14.75;47.95;99387.91;4339802;33;20093;-78
2022/05/01 08:54:38;;;;;;;3.53;1.67;;;;;;;14.75;51.40;99368.94;4339613;33;20078;-75
2022/05/01 08:57:05;;;;;;;3.45;1.55;;;;;;;14.83;52.75;99382.75;4341649;33;20048;-74
2022/05/01 08:59:32;;;;;;;5.65;2.47;;;;;;;14.95;52.08;99378.97;4341829;33;20481;-77
2022/05/01 09:01:59;;;;;;;6.93;1.60;;;;;;;15.05;51.40;99384.44;4341675;33;20055;-74
2022/05/01 09:04:26;;;;;;;4.97;1.85;;;;;;;14.85;49.68;99348.09;4341947;33;20389;-75
2022/05/01 09:06:53;;;;;;;12.70;1.40;;;;;;;15.14;50.37;99384.69;4341420;33;20065;-73
2022/05/01 09:09:21;;;;;;;5.07;1.90;;;;;;;14.87;48.34;99354.03;4340666;33;20066;-74
2022/05/01 09:14:35;;;;;;;2.17;1.45;;;;;;;14.92;47.35;99390.34;4341664;33;20043;-74
2022/05/01 09:17:14;;;;;;;3.17;2.00;;;;;;;14.89;48.17;99370.03;4339781;33;20065;-74
2022/05/01 09:19:48;;;;;;;3.70;2.00;;;;;;;14.90;49.32;99336.41;4340250;33;20054;-77
2022/05/01 09:22:16;;;;;;;3.28;1.98;;;;;;;15.11;49.19;99383.34;4339660;33;20053;-74
2022/05/01 09:24:43;;;;;;;3.70;2.47;;;;;;;15.19;46.96;99385.50;4352502;32;20076;-74
2022/05/01 09:27:42;;;;;;;4.28;1.80;;;;;;;15.01;45.59;99378.72;4339422;33;20036;-74
2022/05/01 09:30:12;;;;;;;7.78;1.80;;;;;;;14.97;46.29;99371.41;4314887;32;20048;-78
2022/05/01 09:32:40;;;;;;;10.70;1.98;;;;;;;15.03;48.01;99375.72;4351441;32;20062;-73
2022/05/01 09:35:11;;;;;;;2.85;1.45;;;;;;;14.84;46.97;99330.19;4349540;32;20787;-75
2022/05/01 09:37:38;;;;;;;5.07;1.70;;;;;;;15.23;47.19;99373.00;4326098;33;20048;-74
2022/05/01 09:40:04;;;;;;;6.03;1.85;;;;;;;15.40;48.15;99374.66;4335630;33;20118;-75
2022/05/01 09:42:35;;;;;;;3.47;1.80;;;;;;;15.60;48.42;99374.63;4339776;33;20388;-75
2022/05/01 09:45:12;;;;;;;4.45;1.58;;;;;;;15.69;47.71;99377.56;4347308;32;20343;-78
2022/05/01 09:47:43;;;;;;;12.32;1.70;;;;;;;15.64;48.21;99346.94;4339554;33;20051;-75
2022/05/01 09:50:11;;;;;;;9.73;1.60;;;;;;;15.52;45.08;99348.03;4338813;33;20048;-75
2022/05/01 09:53:01;;;;;;;3.15;1.80;;;;;;;15.27;43.00;99343.47;4349593;32;20024;-75
2022/05/01 09:55:29;;;;;;;10.15;2.08;;;;;;;15.55;45.53;99371.91;4338378;33;20059;-75
2022/05/01 09:58:07;;;;;;;2.10;1.58;;;;;;;15.49;44.12;99364.84;4338957;33;20074;-75
2022/05/01 10:00:45;;;;;;;6.00;1.73;;;;;;;15.28;43.73;99331.50;4333867;33;21925;-74
2022/05/01 10:03:29;;;;;;;6.72;2.17;;;;;;;15.52;46.94;99326.31;4350358;32;20389;-75
2022/05/01 10:05:58;;;;;;;4.03;1.77;;;;;;;15.86;45.22;99349.31;4340650;33;20060;-74
2022/05/01 10:08:25;;;;;;;4.70;2.30;;;;;;;16.11;44.56;99354.66;4340444;33;20408;-75
2022/05/01 10:10:58;;;;;;;1.55;1.45;;;;;;;15.90;42.39;99318.62;4352078;32;20028;-73
2022/05/01 10:13:27;;;;;;;1.48;1.45;;;;;;;15.89;43.03;99318.91;4339665;33;20054;-73
2022/05/01 10:15:54;;;;;;;5.53;2.15;;;;;;;16.04;45.98;99347.91;4351077;32;20025;-77
2022/05/01 10:18:22;;;;;;;8.32;2.62;;;;;;;16.10;49.27;99349.53;4336061;33;20080;-78
2022/05/01 10:20:49;;;;;;;4.95;1.90;;;;;;;16.04;46.85;99340.56;4337900;33;20103;-74
2022/05/01 10:23:16;;;;;;;5.45;1.87;;;;;;;16.14;46.03;99345.13;4350677;32;20056;-73
2022/05/01 10:26:26;;;;;;;2.83;1.80;;;;;;;16.13;45.29;99348.94;4338084;33;20074;-74
2022/05/01 10:29:04;;;;;;;1.90;1.75;;;;;;;15.89;45.35;99344.16;4308429;33;20060;-74
2022/05/01 10:32:22;;;;;;;3.40;2.05;;;;;;;16.13;45.14;99348.94;4335003;33;20054;-73
2022/05/01 10:35:04;;;;;;;7.75;2.28;;;;;;;16.44;44.88;99346.09;4338325;33;20432;-73
2022/05/01 10:38:02;;;;;;;3.60;1.95;;;;;;;16.60;45.63;99336.72;4338914;33;20075;-73
2022/05/01 10:40:55;;;;;;;2.87;1.67;;;;;;;16.76;42.08;99334.72;4339129;33;20048;-73
2022/05/01 10:43:33;;;;;;;7.20;1.98;;;;;;;16.65;42.77;99336.69;4338616;33;20110;-73
2022/05/01 10:46:24;;;;;;;10.65;2.60;;;;;;;16.83;44.08;99337.94;4350198;32;20084;-78
2022/05/01 10:48:51;;;;;;;6.72;2.03;;;;;;;16.93;43.27;99339.81;4338551;33;20382;-74
2022/05/01 10:51:30;;;;;;;5.87;2.10;;;;;;;17.01;42.19;99297.59;4351616;32;20036;-73
2022/05/01 10:54:15;;;;;;;2.58;1.50;;;;;;;17.08;40.43;99302.69;4337612;33;20036;-73
2022/05/01 10:56:44;;;;;;;4.40;2.15;;;;;;;17.50;40.18;99314.78;4337290;33;20763;-73
2022/05/01 10:59:28;;;;;;;1.90;1.80;;;;;;;17.37;39.02;99333.41;4340667;33;20098;-73
2022/05/01 11:01:58;;;;;;;6.90;2.33;;;;;;;17.63;41.73;99341.34;4339988;33;20044;-78
2022/05/01 11:04:26;;;;;;;7.22;1.77;;;;;;;18.12;40.22;99332.03;4349459;33;20025;-75
2022/05/01 11:06:56;;;;;;;2.78;1.85;;;;;;;18.53;37.33;99319.78;4340219;33;20073;-75
2022/05/01 11:09:25;;;;;;;5.75;1.75;;;;;;;19.01;38.94;99318.78;4348524;33;20172;-73
2022/05/01 11:11:54;;;;;;;3.15;2.08;;;;;;;19.40;34.73;99323.00;4324036;33;20024;-74
2022/05/01 11:14:59;;;;;;;3.08;1.67;;;;;;;19.47;34.42;99282.47;4325093;33;20098;-74
2022/05/01 11:17:50;;;;;;;3.92;1.92;;;;;;;20.14;35.13;99316.69;4325050;33;20040;-75
2022/05/01 11:20:19;;;;;;;5.30;2.15;;;;;;;20.44;35.21;99289.78;4336068;33;20070;-79
2022/05/01 11:22:47;;;;;;;6.93;1.85;;;;;;;20.64;37.61;99308.47;4334944;33;20087;-76
2022/05/01 11:25:33;;;;;;;4.87;2.25;;;;;;;20.83;36.37;99288.31;4325976;33;20713;-76
2022/05/01 11:28:00;;;;;;;6.80;2.22;;;;;;;20.91;37.22;99322.34;4335378;33;20075;-76
2022/05/01 11:30:27;;;;;;;6.18;3.15;;;;;;;19.69;38.92;99311.00;4335474;33;20037;-80
2022/05/01 11:33:08;;;;;;;4.55;2.30;;;;;;;19.77;38.14;99315.81;4328114;33;20160;-75
2022/05/01 11:36:04;;;;;;;10.48;2.10;;;;;;;20.51;39.21;99306.56;4338941;33;20044;-76
2022/05/01 11:38:33;;;;;;;2.75;2.08;;;;;;;20.62;34.13;99310.66;4335933;33;20296;-79
2022/05/01 11:41:02;;;;;;;6.12;2.53;;;;;;;20.11;34.74;99317.28;4340245;33;20048;-75
2022/05/01 11:43:30;;;;;;;18.77;3.17;;;;;;;19.31;34.81;99272.97;4351598;33;20074;-76
2022/05/01 11:46:04;;;;;;;4.85;2.55;;;;;;;20.21;37.54;99300.66;4349603;33;20061;-76
2022/05/01 11:48:31;;;;;;;4.05;1.92;;;;;;;20.68;37.22;99271.16;4338413;33;20483;-75
2022/05/01 11:50:58;;;;;;;3.05;2.80;;;;;;;21.17;33.71;99298.69;4342203;33;20081;-76
2022/05/01 11:53:30;;;;;;;3.47;2.35;;;;;;;20.60;36.56;99268.31;4340002;33;20043;-78
2022/05/01 12:04:45;;;;;;;3.58;2.15;;;;;;;21.75;33.09;99285.09;4339126;33;20377;-77
2022/05/01 12:07:19;;;;;;;3.67;2.42;;;;;;;21.56;32.16;99288.91;4339887;33;20193;-79
2022/05/01 12:09:52;;;;;;;10.20;2.10;;;;;;;21.51;32.05;99263.59;4353179;32;20207;-77
2022/05/01 12:12:20;;;;;;;2.20;2.10;;;;;;;20.28;33.20;99251.03;4342236;33;20048;-74
2022/05/01 12:14:47;;;;;;;2.65;2.12;;;;;;;20.54;33.30;99281.31;4342638;33;20427;-76
2022/05/01 12:17:16;;;;;;;2.90;2.05;;;;;;;20.68;34.30;99286.78;4341827;33;20036;-76
2022/05/01 12:19:44;;;;;;;5.15;2.33;;;;;;;20.40;34.79;99275.09;4340087;33;20040;-77
2022/05/01 12:22:13;;;;;;;2.03;1.92;;;;;;;20.31;33.39;99286.78;4341850;33;20466;-76
2022/05/01 12:24:41;;;;;;;8.07;3.33;;;;;;;20.01;33.47;99266.41;4342183;33;20816;-75
2022/05/01 12:27:08;;;;;;;4.25;2.05;;;;;;;20.30;34.52;99257.81;4353404;32;20054;-76